Alaska Titan — WDE4789 — position and weather

sailwx.info

Track history (hours):
 
Tides and Currents Weather Stations Pressure Air Temp Water Temp Dewpoint Dewpoint Depression Visibility Wind Speed Wind Dir Waves Ship Positions

Alaska Titan

Owner: WESTERN TOWBOAT CO, Seattle, WA. More information available from US FCC via Universal Licensing System and Coast Guard Vessel Documentation Center.

Last reported at 2017-Feb-21 00:00 UTC. Time now 2017-Feb-21 12:17 UTC.
Position N 58°54' W 140°54'.

Length 40 m; draft 5 m.

Type: Tow > 200 m length. MMSI: 367357890.

Wind from 290 at 30 knots

Barometer 1008.9 mb
Air temperature 2.6 ° C
Visibility: greater than 10.8 NM

Date/timePositionNaut miles runAvg speedWind from/ knotsBaromVisibWave heightAir tempDewpointWater temp
2017-Feb-21 00:00N 58°54' W 140°54'42 7.0 290 / 301008.910.8 2.6
2017-Feb-20 18:00N 58°42' W 139°36'6711.2 360 / 51007.410.8 20.0
2017-Feb-20 12:00N 58°18' W 137°36'   220 / 81004.4 5.4 3.0
2017-Feb-17 20:07N 51°29' W 128°11'610.1
2017-Feb-17 19:29N 51°25' W 128°03'11 9.7
2017-Feb-17 18:23N 51°16' W 127°54'8 9.6
2017-Feb-17 17:33N 51°08' W 127°50'10 9.9
2017-Feb-17 16:33N 51°02' W 127°37'10 9.9
2017-Feb-17 15:33N 50°55' W 127°26'10 9.6
2017-Feb-17 14:32N 50°49' W 127°14'10 9.9
2017-Feb-17 13:33N 50°44' W 127°01'11 9.4
2017-Feb-17 12:23N 50°38' W 126°47'5310.0
2017-Feb-17 07:04N 50°20' W 125°27'5 9.9
2017-Feb-17 06:32N 50°16' W 125°23'9 9.0
2017-Feb-17 05:33N 50°07' W 125°20'4 3.7
2017-Feb-17 04:33N 50°05' W 125°16'5 4.8
2017-Feb-17 03:33N 50°00' W 125°12'3 3.0
2017-Feb-17 02:33N 49°58' W 125°10'3 2.9
2017-Feb-17 01:33N 49°56' W 125°06'2 1.6
2017-Feb-17 00:34N 49°54' W 125°06'6 5.6
2017-Feb-16 23:33N 49°50' W 124°60'7 6.7
2017-Feb-16 22:33N 49°47' W 124°51'7 6.7
2017-Feb-16 21:33N 49°43' W 124°42'7 7.1
2017-Feb-16 20:33N 49°39' W 124°34'7 7.0
2017-Feb-16 19:32N 49°35' W 124°24'18 8.3
2017-Feb-16 17:19N 49°25' W 124°00'810.1
2017-Feb-16 16:33N 49°20' W 123°51'1110.4
2017-Feb-16 15:30N 49°13' W 123°38'9 9.9
2017-Feb-16 14:34N 49°07' W 123°27'1010.1
2017-Feb-16 13:33N 49°01' W 123°15'1010.4
2017-Feb-16 12:33N 48°54' W 123°03'11 9.8
2017-Feb-16 11:23N 48°47' W 122°50'7 9.1
2017-Feb-16 10:34N 48°41' W 122°44'9 9.1
2017-Feb-16 09:34N 48°32' W 122°45'10 9.5
2017-Feb-16 08:31N 48°22' W 122°45'1010.2
2017-Feb-16 07:31N 48°12' W 122°47'1611.8
2017-Feb-16 06:11N 47°58' W 122°34'9 9.9
2017-Feb-16 05:16N 47°50' W 122°27'710.5
2017-Feb-16 04:34N 47°43' W 122°27'8 8.0
2017-Feb-16 03:34N 47°36' W 122°22'1 0.7
2017-Feb-16 02:33N 47°35' W 122°21'0 0.1
2017-Feb-16 01:34N 47°35' W 122°21'0 0.1
2017-Feb-16 00:33N 47°35' W 122°21'6 6.0
2017-Feb-15 23:33N 47°40' W 122°26'3 3.1
2017-Feb-15 22:33N 47°39' W 122°22'0 0.0
2017-Feb-15 21:33N 47°39' W 122°22'0 0.0
2017-Feb-15 20:33N 47°39' W 122°22'0 0.0
2017-Feb-15 19:33N 47°39' W 122°22'0 0.0
2017-Feb-15 18:33N 47°39' W 122°22'0 0.0
2017-Feb-15 17:33N 47°39' W 122°22'  
Track history (hours):
 
Tides and Currents Weather Stations Pressure Air Temp Water Temp Dewpoint Dewpoint Depression Visibility Wind Speed Wind Dir Waves Ship Positions

Alaska Titan

Owner: WESTERN TOWBOAT CO, Seattle, WA. More information available from US FCC via Universal Licensing System and Coast Guard Vessel Documentation Center.

Last reported at 2017-Feb-21 00:00 UTC. Time now 2017-Feb-21 12:17 UTC.
Position N 58°54' W 140°54'.

Length 40 m; draft 5 m.

Type: Tow > 200 m length. MMSI: 367357890.

Wind from 290 at 30 knots

Barometer 1008.9 mb
Air temperature 2.6 ° C
Visibility: greater than 10.8 NM

Date/timePositionNaut miles runAvg speedWind from/ knotsBaromVisibWave heightAir tempDewpointWater temp
2017-Feb-21 00:00N 58°54' W 140°54'42 7.0 290 / 301008.910.8 2.6
2017-Feb-20 18:00N 58°42' W 139°36'6711.2 360 / 51007.410.8 20.0
2017-Feb-20 12:00N 58°18' W 137°36'   220 / 81004.4 5.4 3.0
2017-Feb-17 20:07N 51°29' W 128°11'610.1
2017-Feb-17 19:29N 51°25' W 128°03'11 9.7
2017-Feb-17 18:23N 51°16' W 127°54'8 9.6
2017-Feb-17 17:33N 51°08' W 127°50'10 9.9
2017-Feb-17 16:33N 51°02' W 127°37'10 9.9
2017-Feb-17 15:33N 50°55' W 127°26'10 9.6
2017-Feb-17 14:32N 50°49' W 127°14'10 9.9
2017-Feb-17 13:33N 50°44' W 127°01'11 9.4
2017-Feb-17 12:23N 50°38' W 126°47'5310.0
2017-Feb-17 07:04N 50°20' W 125°27'5 9.9
2017-Feb-17 06:32N 50°16' W 125°23'9 9.0
2017-Feb-17 05:33N 50°07' W 125°20'4 3.7
2017-Feb-17 04:33N 50°05' W 125°16'5 4.8
2017-Feb-17 03:33N 50°00' W 125°12'3 3.0
2017-Feb-17 02:33N 49°58' W 125°10'3 2.9
2017-Feb-17 01:33N 49°56' W 125°06'2 1.6
2017-Feb-17 00:34N 49°54' W 125°06'6 5.6
2017-Feb-16 23:33N 49°50' W 124°60'7 6.7
2017-Feb-16 22:33N 49°47' W 124°51'7 6.7
2017-Feb-16 21:33N 49°43' W 124°42'7 7.1
2017-Feb-16 20:33N 49°39' W 124°34'7 7.0
2017-Feb-16 19:32N 49°35' W 124°24'18 8.3
2017-Feb-16 17:19N 49°25' W 124°00'810.1
2017-Feb-16 16:33N 49°20' W 123°51'1110.4
2017-Feb-16 15:30N 49°13' W 123°38'9 9.9
2017-Feb-16 14:34N 49°07' W 123°27'1010.1
2017-Feb-16 13:33N 49°01' W 123°15'1010.4
2017-Feb-16 12:33N 48°54' W 123°03'11 9.8
2017-Feb-16 11:23N 48°47' W 122°50'7 9.1
2017-Feb-16 10:34N 48°41' W 122°44'9 9.1
2017-Feb-16 09:34N 48°32' W 122°45'10 9.5
2017-Feb-16 08:31N 48°22' W 122°45'1010.2
2017-Feb-16 07:31N 48°12' W 122°47'1611.8
2017-Feb-16 06:11N 47°58' W 122°34'9 9.9
2017-Feb-16 05:16N 47°50' W 122°27'710.5
2017-Feb-16 04:34N 47°43' W 122°27'8 8.0
2017-Feb-16 03:34N 47°36' W 122°22'1 0.7
2017-Feb-16 02:33N 47°35' W 122°21'0 0.1
2017-Feb-16 01:34N 47°35' W 122°21'0 0.1
2017-Feb-16 00:33N 47°35' W 122°21'6 6.0
2017-Feb-15 23:33N 47°40' W 122°26'3 3.1
2017-Feb-15 22:33N 47°39' W 122°22'0 0.0
2017-Feb-15 21:33N 47°39' W 122°22'0 0.0
2017-Feb-15 20:33N 47°39' W 122°22'0 0.0
2017-Feb-15 19:33N 47°39' W 122°22'0 0.0
2017-Feb-15 18:33N 47°39' W 122°22'0 0.0
2017-Feb-15 17:33N 47°39' W 122°22'  

Dump ship's entire track history